ENGMESOK

Guest
Details From ENGM - Oslo Gardermoen
To ESOK - Karlstad
Flight Number -
Tags generated
Created
Modified
Stats Distance 82 nm / 153 km
Max Altitude 200 ft / 61 m
Waypoints 3
Social Downloads 1
Likes 0
Share VATSIM

Download

Looking for another format? Having issues loading an existing format? Contact us
Advertisement - Login to hide

Notes

Basic altitude profile: - Ascent Rate: 2500ft/min - Ascent Speed: 180kts - Cruise Altitude: 35000ft - Cruise Speed: 420kts - Descent Rate: 1500ft/min - Descent Speed: 250kts

Route

ENGM GRM ESOK

ID Type Via Altitude Latitude Longitude Leg Dist Tot Dist Heading (true) Name
O ENGM APT - 0 ft / 0 m 60.19451˚ 11.09900˚ - 0 nm - Oslo Gardermoen
GRM VOR - 200 ft / 61 m 60.19176˚ 11.07442˚ 0 nm 0 nm 257° / 257° GARDERMOEN VOR-DME
O ESOK APT - 0 ft / 0 m 59.44863˚ 13.33854˚ 81 nm 82 nm 122° / 124° Karlstad

Altitude Profile

Advertisement - Login to hide

ENGM

Details ICAO ENGM (OSL)
Name Oslo Gardermoen
Region Norway
Timezone Europe/Oslo (UTC+1.0)
Stats Elevation 681 ft / 208 m (AMSL)
Location 60.194507° 11.098998°
Runways 2
Magnetic Variation 3.384° E

METAR

ENGM 122150Z 00000KT CAVOK M13/M16 Q0995 NOSIG

Decode

TAF

TAF ENGM 121700Z 1218/1318 VRB05KT CAVOK BECMG 1310/1312 3000 -SN BKN008 TEMPO 1311/1315 2000 SN VV004 PROB40 1315/1318 0500 FZFG VV001

Decode

Departure Runways

ID Width Length Bearing (true) Bearing (mag) Surface Threshold Offset Overrun Length
01L 148 ft / 45 m 12,144 ft / 3,702 m 15.89° 12.51° Concrete 0 ft / 0 m 499 ft / 152 m
01R 148 ft / 45 m 10,014 ft / 3,052 m 15.89° 12.51° Concrete 0 ft / 0 m 499 ft / 152 m
19L 148 ft / 45 m 10,014 ft / 3,052 m 195.91° 192.53° Concrete 0 ft / 0 m 466 ft / 142 m
19R 148 ft / 45 m 12,144 ft / 3,702 m 195.91° 192.53° Concrete 0 ft / 0 m 482 ft / 147 m

ESOK

Details ICAO ESOK (KSD)
Name Karlstad
Region Sweden
Timezone Europe/Stockholm (UTC+1.0)
Stats Elevation 352 ft / 107 m (AMSL)
Location 59.448625° 13.338536°
Runways 2
Magnetic Variation 4.254° E

METAR

ESOK 122150Z 27003KT CAVOK M09/M09 Q0997

Decode

TAF

Not found

Destination Runways

ID Width Length Bearing (true) Bearing (mag) Surface Threshold Offset Overrun Length
03 148 ft / 45 m 8,239 ft / 2,511 m 25.61° 21.36° Asphalt 0 ft / 0 m 100 ft / 30 m
03L 170 ft / 52 m 1,833 ft / 559 m 26.12° 21.87° Dirt 0 ft / 0 m 0 ft / 0 m
21 148 ft / 45 m 8,239 ft / 2,511 m 205.63° 201.38° Asphalt 0 ft / 0 m 100 ft / 30 m
21R 170 ft / 52 m 1,833 ft / 559 m 206.12° 201.87° Dirt 0 ft / 0 m 0 ft / 0 m

Approach Navaids

Runway Type Ident Frequency Range Bearing (true) Bearing (mag) Slope Elevation
03 Localiser SOK 109.35 MHz 18 nm / 33 km 25.63° 21.38° - 352 ft / 107 m (AMSL)
03 Glidescope SOK 109.35 MHz 10 nm / 19 km 25.62° 21.36° 3.00° 352 ft / 107 m (AMSL)
21 Localiser NOK 110.70 MHz 18 nm / 33 km 205.62° 201.37° - 352 ft / 107 m (AMSL)
21 Glidescope NOK 110.70 MHz 10 nm / 19 km 205.62° 201.36° 3.00° 352 ft / 107 m (AMSL)

Popular Alternatives